Aérodrome :
LOGIN :

S'inscrire | Disclaimer

   EN    FR    IT 

 










Légende :    VFR   VFR Marginal   IFR   IFR Intensif   IFR Très Intensif
Visi : 
Plafond : 
>= 8 km
>= 3000ft
5 à 8 km
1000 à 3000 ft
1500m à 5 km
500 à 1000 ft
800 à 1500m
200 à 500 ft
< 800m
< 200 ft
Symboles :   Orages  Brouillard  Fortes neiges  Fortes précipitations  Vent > 20 kt
SIGMETs :   Divers  Orages  Givrage  Turbulence  Onde Orograph.  Cendres Volcan.






- Altitude de l'aérodrome : 574 ft
- Code IATA : TEQ


LTBU - Corlu

DERNIER METAR :
  • 231950Z 18008KT 9999 SCT035 BKN100 10/07 Q1013 RMK RWY22 17008KT

METARs EXPIRÉS :
  • 231920Z 17007KT 9999 SCT035 BKN100 10/07 Q1013 RMK RWY22 17007KT
  • 231850Z 17008KT 9999 SCT035 BKN100 11/07 Q1013
  • 231820Z 18008KT 9999 SCT035 BKN100 11/07 Q1014 RMK RWY22 18007KT
  • 231750Z 17009KT 9999 SCT035 BKN100 11/07 Q1014 RMK RWY22 17009KT
  • 231720Z 18007KT 9999 SCT035 BKN100 11/07 Q1014 RMK RWY22 18007KT

TAF TAF LTBU
Valide du 23 à 18h jusqu'au 24 à 18h UTC


231640Z 2318/2418 19015G25KT 9999 SCT035 BKN100
TEMPO 2318/2321 -SHRA BKN027 BKN080
BECMG 2322/2401 -SHRA BKN027 BKN080
PROB30
TEMPO 2405/2409 22025G35KT 4000 -TSRA FEW017CB BKN022
BECMG 2410/2412 SCT040
BECMG 2412/2415 19008KT CAVOK



MET'MAP, la Météo Aéronautique d'un coup d'oeil ! - Copyright ORBIFLY Décembre 2007 - Disclaimer

ORBIFLY MET'MAP TEAM :

Programmation & Développement : Alexandra Zaïnal
Sur une idée originale de : Baudouin d'Aumeries
Assistance à la programmation : Marc-Olivier Méhu
Soutien technique & logistique : Manuel Goepfert

Contact : metmap@orbifly.com




SOURCES & CREDITS :

   NOAA